Time;durP1;ratioP1;P1;durP2;ratioP2;P2;SDS_P1;SDS_P2;PMS_P1;PMS_P2;Temp;Humidity;BMP_temperature;BMP_pressure;BME280_temperature;BME280_humidity;BME280_pressure;Samples;Min_cycle;Max_cycle;Signal;HPM_P1;HPM_P2
2022/01/28 00:01:01;;;;;;;20.35;3.10;;;4.10;99.90;;;;;;5052914;28;20521;-90
2022/01/28 00:03:27;;;;;;;23.55;2.67;;;3.90;99.90;;;;;;5048535;28;20659;-88
2022/01/28 00:05:53;;;;;;;18.80;2.97;;;3.90;99.90;;;;;;5060304;28;20086;-90
2022/01/28 00:08:19;;;;;;;22.55;3.28;;;3.80;99.90;;;;;;5038840;28;20037;-92
2022/01/28 00:10:44;;;;;;;26.02;2.85;;;3.80;99.90;;;;;;5023293;28;20041;-92
2022/01/28 00:13:20;;;;;;;14.80;2.78;;;3.70;99.90;;;;;;5077930;28;20047;-91
2022/01/28 00:16:00;;;;;;;29.02;4.22;;;3.70;99.90;;;;;;5050608;28;20045;-93
2022/01/28 00:40:28;;;;;;;17.88;2.83;;;3.60;99.90;;;;;;5021346;28;20049;-91
2022/01/28 00:42:54;;;;;;;23.77;2.50;;;3.60;99.90;;;;;;5024696;28;20061;-91
2022/01/28 00:45:20;;;;;;;18.58;2.92;;;3.60;99.90;;;;;;5043468;28;20099;-91
2022/01/28 00:47:47;;;;;;;15.07;2.92;;;3.50;99.90;;;;;;5048726;28;20074;-91
2022/01/28 00:50:14;;;;;;;13.10;2.35;;;3.50;99.90;;;;;;5021164;28;20033;-91
2022/01/28 00:52:39;;;;;;;26.15;2.90;;;3.60;99.90;;;;;;5071108;28;20125;-91
2022/01/28 00:55:06;;;;;;;14.65;1.75;;;3.50;99.90;;;;;;5050385;28;20131;-89
2022/01/28 00:57:31;;;;;;;16.80;1.90;;;3.60;99.90;;;;;;5059249;28;20041;-90
2022/01/28 00:59:57;;;;;;;22.13;2.85;;;3.60;99.90;;;;;;5049825;28;20040;-91
2022/01/28 01:02:23;;;;;;;13.90;2.08;;;3.60;99.90;;;;;;5046752;28;20503;-90
2022/01/28 01:04:49;;;;;;;12.23;1.55;;;3.60;99.90;;;;;;5065048;28;20053;-94
2022/01/28 01:07:14;;;;;;;12.63;1.90;;;3.70;99.90;;;;;;5064110;28;20034;-89
2022/01/28 01:09:40;;;;;;;11.48;1.73;;;3.70;99.90;;;;;;5041024;28;20044;-88
2022/01/28 01:12:06;;;;;;;11.15;2.20;;;3.70;99.90;;;;;;5015039;28;20605;-89
2022/01/28 01:14:32;;;;;;;12.60;2.88;;;3.70;99.90;;;;;;5017824;28;20052;-92
2022/01/28 01:19:27;;;;;;;21.90;2.80;;;3.70;99.90;;;;;;5030735;28;20056;-91
2022/01/28 01:21:57;;;;;;;15.43;1.83;;;3.80;99.90;;;;;;5041879;28;20049;-91
2022/01/28 01:24:25;;;;;;;18.35;2.95;;;3.80;99.90;;;;;;5043628;28;20057;-92
2022/01/28 01:26:51;;;;;;;15.40;2.10;;;4.00;99.90;;;;;;5051539;28;20047;-91
2022/01/28 01:29:19;;;;;;;19.80;2.17;;;4.00;99.90;;;;;;5049698;28;20507;-92
2022/01/28 01:31:46;;;;;;;17.27;2.38;;;4.00;99.90;;;;;;5046899;28;20111;-90
2022/01/28 01:34:16;;;;;;;20.40;2.45;;;4.00;99.90;;;;;;5072357;28;20052;-92
2022/01/28 01:36:42;;;;;;;18.70;2.22;;;4.00;99.90;;;;;;5049113;28;20042;-92
2022/01/28 01:39:09;;;;;;;18.58;2.58;;;4.00;99.90;;;;;;5063988;28;20046;-92
2022/01/28 01:41:42;;;;;;;12.13;2.95;;;4.10;99.90;;;;;;5072622;28;20044;-93
2022/01/28 01:44:32;;;;;;;17.05;3.55;;;4.00;99.90;;;;;;5054676;28;20050;-91
2022/01/28 01:52:02;;;;;;;19.58;2.70;;;3.90;99.90;;;;;;5037517;28;20132;-91
2022/01/28 01:52:52;;;;;;;18.33;2.97;;;4.00;99.90;;;;;;5027947;28;20056;-91
2022/01/28 01:55:17;;;;;;;19.65;2.95;;;4.10;99.90;;;;;;5004959;28;20041;-89
2022/01/28 01:57:44;;;;;;;21.42;2.75;;;4.00;99.90;;;;;;5063346;28;20095;-88
2022/01/28 02:00:10;;;;;;;16.27;2.78;;;4.10;99.90;;;;;;5046755;28;20076;-91
2022/01/28 02:02:36;;;;;;;22.98;3.10;;;4.00;99.90;;;;;;5034427;28;20122;-91
2022/01/28 02:05:03;;;;;;;25.23;3.03;;;4.10;99.90;;;;;;5073408;28;20065;-89
2022/01/28 02:07:29;;;;;;;25.38;3.22;;;4.00;99.90;;;;;;5013568;28;20038;-91
2022/01/28 02:09:55;;;;;;;25.38;3.17;;;4.00;99.90;;;;;;5055002;28;20056;-92
2022/01/28 02:12:20;;;;;;;23.80;3.30;;;3.90;99.90;;;;;;5034896;28;20041;-91
2022/01/28 02:14:46;;;;;;;20.10;4.20;;;4.00;99.90;;;;;;5051236;28;20483;-90
2022/01/28 02:17:12;;;;;;;24.60;4.32;;;4.00;99.90;;;;;;5060722;28;20057;-93
2022/01/28 02:19:39;;;;;;;21.08;3.50;;;4.10;99.90;;;;;;5018466;28;20053;-87
2022/01/28 02:22:05;;;;;;;23.17;4.03;;;4.10;99.90;;;;;;5016325;28;20090;-91
2022/01/28 02:24:39;;;;;;;22.95;3.28;;;4.20;99.90;;;;;;5070723;28;20148;-89
2022/01/28 02:27:05;;;;;;;21.73;3.67;;;4.20;99.90;;;;;;5039929;28;20269;-90
2022/01/28 02:29:34;;;;;;;20.80;3.42;;;4.20;99.90;;;;;;5048525;28;20056;-88
2022/01/28 02:32:02;;;;;;;24.08;3.80;;;4.20;99.90;;;;;;5037965;28;20049;-90
2022/01/28 02:34:27;;;;;;;19.08;4.22;;;4.20;99.90;;;;;;5054367;28;20050;-89
2022/01/28 02:36:55;;;;;;;27.75;4.38;;;4.20;99.90;;;;;;5028011;28;20426;-91
2022/01/28 02:39:21;;;;;;;23.00;3.60;;;4.30;99.90;;;;;;5019508;28;20060;-89
2022/01/28 02:41:50;;;;;;;25.58;3.35;;;4.30;99.90;;;;;;5047669;28;20049;-91
2022/01/28 02:44:21;;;;;;;22.35;3.10;;;4.30;99.90;;;;;;5049673;28;20053;-92
2022/01/28 02:47:12;;;;;;;20.45;4.03;;;4.40;99.90;;;;;;5050331;28;20088;-91
2022/01/28 02:49:36;;;;;;;28.33;3.25;;;4.40;99.90;;;;;;5053605;28;20093;-91
2022/01/28 02:52:03;;;;;;;22.05;2.90;;;4.40;99.90;;;;;;5033739;28;20037;-89
2022/01/28 02:54:30;;;;;;;24.65;3.50;;;4.50;99.90;;;;;;5036664;28;20128;-90
2022/01/28 02:57:03;;;;;;;25.85;4.35;;;4.60;99.90;;;;;;5077312;28;20095;-90
2022/01/28 02:59:29;;;;;;;23.33;4.63;;;4.50;99.90;;;;;;5044162;28;20099;-89
2022/01/28 03:01:55;;;;;;;26.10;4.18;;;4.50;99.90;;;;;;5059636;28;21694;-91
2022/01/28 03:04:59;;;;;;;29.70;3.92;;;4.50;99.90;;;;;;5058476;28;20075;-90
2022/01/28 03:07:16;;;;;;;20.60;3.33;;;4.60;99.90;;;;;;5080589;28;20053;-90
2022/01/28 03:09:52;;;;;;;27.85;3.45;;;4.50;99.90;;;;;;5049275;28;20051;-91
2022/01/28 03:12:21;;;;;;;19.50;2.92;;;4.50;99.90;;;;;;5009093;28;20059;-89
2022/01/28 03:19:55;;;;;;;26.05;4.35;;;4.50;99.90;;;;;;5050540;28;20193;-87
2022/01/28 03:22:22;;;;;;;39.40;4.93;;;4.50;99.90;;;;;;5038256;28;20132;-90
2022/01/28 03:24:51;;;;;;;28.20;4.68;;;4.50;99.90;;;;;;5039200;28;20098;-90
2022/01/28 03:27:35;;;;;;;26.83;4.13;;;4.50;99.90;;;;;;5049167;28;20099;-90
2022/01/28 03:30:01;;;;;;;23.45;3.30;;;4.50;99.90;;;;;;5060177;28;20080;-90
2022/01/28 03:32:27;;;;;;;19.83;2.95;;;4.60;99.90;;;;;;5045175;28;20071;-91
2022/01/28 03:34:52;;;;;;;19.48;3.75;;;4.60;99.90;;;;;;5049343;28;20065;-92
2022/01/28 03:37:19;;;;;;;31.05;4.18;;;4.60;99.90;;;;;;5063541;28;20049;-92
2022/01/28 03:39:45;;;;;;;19.27;2.90;;;4.80;99.90;;;;;;5044636;28;20557;-94
2022/01/28 03:42:11;;;;;;;24.85;3.08;;;4.70;99.90;;;;;;5015225;28;20045;-92
2022/01/28 03:44:38;;;;;;;17.33;3.20;;;4.80;99.90;;;;;;5034856;28;20567;-91
2022/01/28 03:47:04;;;;;;;25.10;2.85;;;4.70;99.90;;;;;;5047556;28;20087;-91
2022/01/28 03:49:29;;;;;;;22.65;3.60;;;4.70;99.90;;;;;;5050296;28;20551;-90
2022/01/28 03:51:55;;;;;;;24.73;3.50;;;4.80;99.90;;;;;;5042562;28;20045;-89
2022/01/28 03:54:21;;;;;;;19.35;3.15;;;4.70;99.90;;;;;;5051435;28;20049;-89
2022/01/28 03:56:47;;;;;;;24.42;3.10;;;4.70;99.90;;;;;;5043740;28;21445;-91
2022/01/28 03:59:12;;;;;;;20.75;3.33;;;4.70;99.90;;;;;;5055319;28;20064;-90
2022/01/28 04:01:40;;;;;;;21.38;3.65;;;4.70;99.90;;;;;;5038106;28;20048;-89
2022/01/28 04:12:41;;;;;;;20.73;4.07;;;4.80;99.90;;;;;;5019414;28;20052;-90
2022/01/28 04:17:51;;;;;;;20.70;3.25;;;4.60;99.90;;;;;;5067551;28;20045;-90
2022/01/28 04:20:17;;;;;;;27.45;3.58;;;4.60;99.90;;;;;;5057924;28;20269;-92
2022/01/28 04:22:43;;;;;;;21.00;4.82;;;4.50;99.90;;;;;;5021225;28;20041;-92
2022/01/28 04:25:09;;;;;;;18.60;3.15;;;4.50;99.90;;;;;;5059076;28;20494;-91
2022/01/28 04:27:35;;;;;;;24.30;3.15;;;4.50;99.90;;;;;;5044201;28;20064;-91
2022/01/28 04:30:01;;;;;;;22.65;3.40;;;4.60;99.90;;;;;;5056343;28;20045;-87
2022/01/28 04:32:29;;;;;;;27.85;4.10;;;4.50;99.90;;;;;;5050825;28;20052;-89
2022/01/28 04:34:55;;;;;;;34.45;4.38;;;4.60;99.90;;;;;;5053809;28;20124;-91
2022/01/28 04:37:44;;;;;;;20.25;3.88;;;4.60;99.90;;;;;;5040953;28;20486;-89
2022/01/28 04:48:01;;;;;;;17.70;3.13;;;4.60;99.90;;;;;;5036123;28;20055;-92
2022/01/28 04:53:20;;;;;;;23.52;3.95;;;4.70;99.90;;;;;;5052492;28;20041;-90
2022/01/28 04:56:05;;;;;;;35.65;3.47;;;4.70;99.90;;;;;;5032211;28;20084;-90
2022/01/28 05:01:31;;;;;;;24.70;3.70;;;4.60;99.90;;;;;;5046278;28;20502;-90
2022/01/28 05:04:16;;;;;;;24.77;3.90;;;4.60;99.90;;;;;;5081586;28;20060;-90
2022/01/28 05:27:41;;;;;;;28.92;4.35;;;3.90;99.90;;;;;;5046705;28;20064;-90
2022/01/28 05:30:07;;;;;;;28.67;3.95;;;3.90;99.90;;;;;;5048318;28;20084;-90
2022/01/28 05:32:33;;;;;;;25.83;3.83;;;3.80;99.90;;;;;;5027539;28;20040;-90
2022/01/28 05:34:59;;;;;;;26.50;4.45;;;3.80;99.90;;;;;;5056570;28;20037;-90
2022/01/28 05:37:24;;;;;;;16.98;3.03;;;3.70;99.90;;;;;;5061440;28;20071;-91
2022/01/28 05:39:50;;;;;;;23.15;3.70;;;3.70;99.90;;;;;;5059372;28;20044;-90
2022/01/28 05:42:16;;;;;;;26.20;3.80;;;3.60;99.90;;;;;;5026556;28;20084;-86
2022/01/28 05:44:41;;;;;;;27.25;4.80;;;3.70;99.90;;;;;;5053292;28;20037;-90
2022/01/28 05:47:07;;;;;;;20.85;3.63;;;3.70;99.90;;;;;;5021533;28;20037;-91
2022/01/28 05:49:33;;;;;;;27.08;4.00;;;3.70;99.90;;;;;;5000355;28;20846;-89
2022/01/28 05:51:59;;;;;;;25.83;4.53;;;3.60;99.90;;;;;;5045622;28;20037;-90
2022/01/28 05:54:25;;;;;;;22.63;3.50;;;3.70;99.90;;;;;;5064507;28;20037;-91
2022/01/28 05:56:50;;;;;;;18.08;3.13;;;3.60;99.90;;;;;;5080019;28;20072;-92
2022/01/28 05:59:19;;;;;;;22.33;3.70;;;3.60;99.90;;;;;;5039541;28;20367;-86
2022/01/28 06:01:45;;;;;;;23.95;3.80;;;3.70;99.90;;;;;;5064639;28;20063;-91
2022/01/28 06:04:10;;;;;;;25.73;3.63;;;3.80;99.90;;;;;;5029447;28;20129;-89
2022/01/28 06:06:36;;;;;;;27.67;3.72;;;3.90;99.90;;;;;;5049746;28;20193;-90
2022/01/28 06:09:02;;;;;;;27.77;3.33;;;4.00;99.90;;;;;;5044695;28;20049;-91
2022/01/28 06:11:28;;;;;;;21.58;3.28;;;4.10;99.90;;;;;;5045848;28;20049;-90
2022/01/28 06:13:54;;;;;;;26.63;3.10;;;4.20;99.90;;;;;;5031843;28;20061;-91
2022/01/28 06:16:20;;;;;;;18.45;3.00;;;4.30;99.90;;;;;;5051756;28;20053;-86
2022/01/28 06:18:45;;;;;;;26.52;3.88;;;4.40;99.90;;;;;;5023625;28;20060;-88
2022/01/28 06:21:12;;;;;;;24.80;3.55;;;4.50;99.90;;;;;;5058625;28;20029;-89
2022/01/28 06:23:37;;;;;;;22.38;4.10;;;4.50;99.90;;;;;;5053560;28;20045;-85
2022/01/28 06:26:04;;;;;;;19.20;3.85;;;4.50;99.90;;;;;;5059018;28;20394;-91
2022/01/28 06:28:30;;;;;;;23.15;3.03;;;4.60;99.90;;;;;;5047788;28;20180;-88
2022/01/28 06:30:56;;;;;;;20.60;3.95;;;4.60;99.90;;;;;;5050405;28;20064;-87
2022/01/28 06:33:21;;;;;;;21.65;4.15;;;4.60;99.90;;;;;;5033958;28;20041;-84
2022/01/28 06:35:48;;;;;;;28.35;3.78;;;4.70;99.90;;;;;;5046955;28;20046;-88
2022/01/28 06:38:15;;;;;;;31.23;4.03;;;4.70;99.90;;;;;;5016210;28;20119;-87
2022/01/28 06:40:41;;;;;;;23.65;3.40;;;4.70;99.90;;;;;;5049548;28;20192;-88
2022/01/28 06:43:12;;;;;;;20.88;3.25;;;4.80;99.90;;;;;;5052985;28;20037;-89
2022/01/28 06:45:41;;;;;;;22.65;3.22;;;4.80;99.90;;;;;;5051252;28;20041;-87
2022/01/28 06:48:10;;;;;;;17.85;3.10;;;4.80;99.90;;;;;;5073341;28;20044;-89
2022/01/28 06:50:37;;;;;;;23.80;3.15;;;4.70;99.90;;;;;;5018623;28;20061;-89
2022/01/28 06:53:02;;;;;;;21.90;3.63;;;4.50;99.90;;;;;;5033974;28;20044;-87
2022/01/28 06:55:28;;;;;;;17.23;3.53;;;4.50;99.90;;;;;;5017753;28;20395;-89
2022/01/28 06:57:56;;;;;;;20.42;3.90;;;4.40;99.90;;;;;;5046277;28;20124;-87
2022/01/28 07:00:22;;;;;;;26.48;3.28;;;4.40;99.90;;;;;;5020643;28;20060;-83
2022/01/28 07:02:50;;;;;;;22.60;3.90;;;4.30;99.90;;;;;;5048862;28;20107;-87
2022/01/28 07:05:16;;;;;;;25.48;2.90;;;4.20;99.90;;;;;;5001239;28;20049;-86
2022/01/28 07:07:42;;;;;;;16.42;2.90;;;4.20;99.90;;;;;;5033723;28;20522;-86
2022/01/28 07:10:10;;;;;;;20.83;3.72;;;4.00;99.90;;;;;;5067421;28;20041;-86
2022/01/28 07:12:37;;;;;;;24.10;4.40;;;3.90;99.90;;;;;;5066692;28;20037;-86
2022/01/28 07:15:03;;;;;;;25.10;3.85;;;3.90;99.90;;;;;;5033936;28;20095;-87
2022/01/28 07:17:29;;;;;;;25.27;3.40;;;3.70;99.90;;;;;;5067092;28;20045;-87
2022/01/28 07:19:54;;;;;;;23.52;3.70;;;3.70;99.90;;;;;;5033934;28;20055;-88
2022/01/28 07:22:20;;;;;;;20.10;2.63;;;3.60;99.90;;;;;;5067057;28;20099;-86
2022/01/28 07:24:49;;;;;;;26.35;3.28;;;3.60;99.90;;;;;;5049759;28;20053;-86
2022/01/28 07:27:19;;;;;;;43.25;4.47;;;3.60;99.90;;;;;;5033349;28;20046;-86
2022/01/28 07:29:50;;;;;;;24.58;3.35;;;3.50;99.90;;;;;;5034275;28;20053;-87
2022/01/28 07:32:16;;;;;;;21.15;3.78;;;3.50;99.90;;;;;;5042898;28;20099;-84
2022/01/28 07:34:43;;;;;;;26.58;3.13;;;3.50;99.90;;;;;;5047199;28;20052;-82
2022/01/28 07:37:11;;;;;;;30.10;4.95;;;3.40;99.90;;;;;;5052577;28;20620;-84
2022/01/28 07:39:37;;;;;;;25.60;3.70;;;3.40;99.90;;;;;;5053961;28;20052;-83
2022/01/28 07:42:05;;;;;;;26.40;3.75;;;3.50;99.90;;;;;;5035522;28;20045;-86
2022/01/28 07:44:31;;;;;;;31.42;3.97;;;3.50;99.90;;;;;;5051134;28;20037;-87
2022/01/28 07:46:58;;;;;;;22.50;4.15;;;3.60;99.90;;;;;;5052447;28;20063;-86
2022/01/28 07:49:24;;;;;;;21.45;3.85;;;3.70;99.90;;;;;;5048838;28;20041;-87
2022/01/28 07:51:53;;;;;;;28.85;5.70;;;3.70;99.90;;;;;;5046115;28;20048;-86
2022/01/28 07:54:21;;;;;;;28.92;3.85;;;3.80;99.90;;;;;;5034992;28;20080;-85
2022/01/28 07:56:53;;;;;;;24.05;3.92;;;3.90;99.90;;;;;;5045426;28;20076;-85
2022/01/28 07:59:20;;;;;;;33.42;6.05;;;4.10;99.90;;;;;;5085649;28;20135;-87
2022/01/28 08:01:47;;;;;;;34.97;4.90;;;4.10;99.90;;;;;;5049809;28;20041;-87
2022/01/28 08:04:16;;;;;;;23.65;4.68;;;4.20;99.90;;;;;;5034990;28;20521;-86
2022/01/28 08:06:45;;;;;;;27.27;4.35;;;4.30;99.90;;;;;;5051689;28;20076;-85
2022/01/28 08:09:11;;;;;;;29.80;4.43;;;4.40;99.90;;;;;;5062321;28;20738;-86
2022/01/28 08:11:36;;;;;;;26.50;4.07;;;4.40;99.90;;;;;;5032173;28;20124;-86
2022/01/28 08:14:03;;;;;;;30.42;4.68;;;4.40;99.90;;;;;;5042845;28;20073;-86
2022/01/28 08:16:29;;;;;;;29.00;3.78;;;4.40;99.90;;;;;;5055147;28;20477;-87
2022/01/28 08:18:55;;;;;;;17.42;3.00;;;4.40;99.90;;;;;;5076519;28;20081;-88
2022/01/28 08:21:28;;;;;;;15.48;3.15;;;4.40;99.90;;;;;;5048063;28;20037;-85
2022/01/28 08:23:53;;;;;;;19.45;4.90;;;4.50;99.90;;;;;;5051353;28;20087;-85
2022/01/28 08:26:21;;;;;;;24.92;4.07;;;4.50;99.90;;;;;;5051562;28;20080;-85
2022/01/28 08:28:50;;;;;;;29.27;3.60;;;4.60;99.90;;;;;;5051307;28;20060;-85
2022/01/28 08:31:23;;;;;;;25.50;4.18;;;4.60;99.90;;;;;;5034168;28;20049;-86
2022/01/28 08:33:56;;;;;;;23.20;3.72;;;4.50;99.90;;;;;;5050165;28;20045;-85
2022/01/28 08:36:22;;;;;;;15.50;2.83;;;4.40;99.90;;;;;;5033601;28;20057;-87
2022/01/28 08:38:49;;;;;;;16.33;3.60;;;4.30;99.90;;;;;;5050582;28;20045;-88
2022/01/28 08:41:18;;;;;;;24.20;3.13;;;4.20;99.90;;;;;;5034317;28;20722;-85
2022/01/28 08:43:48;;;;;;;25.83;4.05;;;4.00;99.90;;;;;;5047004;28;20037;-87
2022/01/28 08:46:15;;;;;;;20.70;3.58;;;4.00;99.90;;;;;;5045359;28;20099;-85
2022/01/28 08:48:48;;;;;;;32.08;5.22;;;4.00;99.90;;;;;;5032459;28;20052;-86
2022/01/28 08:51:18;;;;;;;46.50;4.68;;;4.00;99.90;;;;;;5044481;28;20080;-84
2022/01/28 08:53:44;;;;;;;32.15;4.30;;;4.00;99.90;;;;;;5029773;28;20501;-80
2022/01/28 08:56:12;;;;;;;18.20;3.58;;;4.10;99.90;;;;;;5040586;28;20049;-79
2022/01/28 08:58:56;;;;;;;24.98;3.60;;;4.10;99.90;;;;;;5057798;28;20056;-86
2022/01/28 09:01:29;;;;;;;26.67;4.45;;;4.20;99.90;;;;;;5070234;28;20092;-85
2022/01/28 09:03:58;;;;;;;28.88;3.95;;;4.20;99.90;;;;;;5057647;28;20061;-85
2022/01/28 09:06:23;;;;;;;25.38;3.58;;;4.30;99.90;;;;;;5034184;28;20055;-85
2022/01/28 09:08:55;;;;;;;29.50;3.80;;;4.40;99.90;;;;;;5034252;28;20056;-85
2022/01/28 09:14:20;;;;;;;27.08;5.18;;;4.80;99.90;;;;;;5039958;28;20044;-87
2022/01/28 09:16:52;;;;;;;22.48;5.05;;;5.00;99.90;;;;;;5001792;28;20049;-85
2022/01/28 09:19:27;;;;;;;28.40;4.50;;;5.20;99.90;;;;;;5047367;28;20073;-86
2022/01/28 09:21:55;;;;;;;26.00;4.50;;;5.30;99.90;;;;;;5037126;28;20056;-84
2022/01/28 09:24:24;;;;;;;25.50;5.47;;;5.20;99.90;;;;;;5050265;28;20063;-85
2022/01/28 09:26:54;;;;;;;31.42;6.97;;;5.20;99.90;;;;;;5049906;28;20098;-85
2022/01/28 09:29:31;;;;;;;24.30;4.55;;;5.20;99.90;;;;;;5025970;28;20052;-84
2022/01/28 09:32:00;;;;;;;29.83;4.53;;;5.40;99.90;;;;;;5049315;28;20132;-86
2022/01/28 09:34:29;;;;;;;34.58;5.45;;;5.40;99.90;;;;;;5067995;28;20048;-85
2022/01/28 09:36:55;;;;;;;31.52;5.28;;;5.50;99.90;;;;;;5046154;28;20052;-86
2022/01/28 09:39:24;;;;;;;24.48;4.75;;;5.60;99.90;;;;;;5030793;28;20096;-87
2022/01/28 09:42:00;;;;;;;22.60;4.22;;;5.70;99.90;;;;;;5048487;28;20391;-86
2022/01/28 09:44:29;;;;;;;22.15;3.33;;;5.70;99.90;;;;;;5051166;28;20049;-86
2022/01/28 09:46:58;;;;;;;18.50;4.38;;;5.90;99.90;;;;;;5048942;28;20048;-86
2022/01/28 09:49:26;;;;;;;28.02;4.40;;;5.90;99.90;;;;;;5054880;28;20150;-87
2022/01/28 09:51:53;;;;;;;30.30;4.32;;;6.10;99.90;;;;;;5050934;28;20041;-85
2022/01/28 09:54:21;;;;;;;26.30;4.10;;;6.20;99.90;;;;;;5053224;28;20044;-86
2022/01/28 09:56:50;;;;;;;25.42;5.10;;;6.20;99.90;;;;;;5037297;28;20125;-89
2022/01/28 09:59:23;;;;;;;27.80;4.90;;;6.30;99.90;;;;;;5053841;28;20047;-86
2022/01/28 10:02:00;;;;;;;25.48;4.30;;;6.30;99.90;;;;;;5072714;28;20106;-88
2022/01/28 10:04:28;;;;;;;28.17;4.40;;;6.40;99.90;;;;;;5054028;28;20144;-86
2022/01/28 10:06:55;;;;;;;28.58;3.83;;;6.50;99.90;;;;;;5052721;28;20048;-87
2022/01/28 10:09:24;;;;;;;24.83;4.03;;;6.50;99.90;;;;;;5042739;28;20128;-86
2022/01/28 10:12:19;;;;;;;25.38;4.82;;;6.60;99.90;;;;;;5042834;28;20040;-89
2022/01/28 10:15:16;;;;;;;20.52;3.58;;;6.70;99.90;;;;;;5042186;28;20501;-86
2022/01/28 10:17:53;;;;;;;24.83;4.03;;;6.70;99.90;;;;;;5052723;28;20465;-86
2022/01/28 10:20:28;;;;;;;20.20;4.15;;;6.80;99.90;;;;;;5034884;28;20059;-85
2022/01/28 10:23:47;;;;;;;20.45;4.10;;;6.90;99.90;;;;;;5059733;28;20095;-86
2022/01/28 10:25:56;;;;;;;26.73;3.73;;;6.90;99.90;;;;;;5030188;28;20122;-85
2022/01/28 10:28:25;;;;;;;31.27;5.90;;;7.00;99.90;;;;;;5024718;28;20049;-85
2022/01/28 10:30:53;;;;;;;32.78;5.40;;;7.10;99.90;;;;;;5062202;28;20049;-88
2022/01/28 10:33:25;;;;;;;28.65;4.50;;;7.20;99.90;;;;;;5038151;28;20041;-85
2022/01/28 10:35:56;;;;;;;34.72;4.78;;;7.20;99.90;;;;;;5038588;28;20128;-87
2022/01/28 10:38:32;;;;;;;21.88;3.92;;;7.20;99.90;;;;;;5048035;28;20052;-86
2022/01/28 10:41:16;;;;;;;29.30;5.00;;;7.30;99.90;;;;;;5035782;28;20140;-85
2022/01/28 10:43:51;;;;;;;31.25;4.63;;;7.30;99.90;;;;;;5052808;28;20099;-86
2022/01/28 10:46:22;;;;;;;23.13;3.22;;;7.40;99.90;;;;;;5048326;28;20498;-86
2022/01/28 10:48:57;;;;;;;38.85;5.13;;;7.50;99.90;;;;;;5036684;28;20079;-87
2022/01/28 10:51:36;;;;;;;22.50;3.70;;;7.50;99.90;;;;;;5043706;28;20665;-86
2022/01/28 10:54:13;;;;;;;23.35;3.75;;;7.50;99.90;;;;;;5048447;28;20403;-86
2022/01/28 10:57:01;;;;;;;15.40;3.22;;;7.50;99.90;;;;;;5066528;28;20136;-86
2022/01/28 10:59:33;;;;;;;21.55;4.15;;;7.50;99.90;;;;;;5054231;28;20037;-86
2022/01/28 11:02:00;;;;;;;27.70;3.85;;;7.50;99.90;;;;;;5027066;28;20051;-84
2022/01/28 11:04:26;;;;;;;21.45;3.28;;;7.60;99.90;;;;;;5031278;28;20060;-85
2022/01/28 11:06:55;;;;;;;20.35;3.35;;;7.70;99.90;;;;;;5053805;28;20053;-85
2022/01/28 11:09:22;;;;;;;19.70;3.78;;;7.80;99.90;;;;;;5080271;28;20103;-84
2022/01/28 11:11:49;;;;;;;23.40;4.05;;;7.70;99.90;;;;;;5039156;28;20091;-85
2022/01/28 11:14:15;;;;;;;22.55;4.00;;;7.80;99.90;;;;;;5034900;28;20317;-86
2022/01/28 11:16:41;;;;;;;21.73;3.50;;;7.70;99.90;;;;;;5049424;28;20528;-87
2022/01/28 11:19:10;;;;;;;28.30;4.43;;;7.60;99.90;;;;;;5046585;28;20048;-86
2022/01/28 11:22:15;;;;;;;22.42;4.93;;;7.60;99.90;;;;;;5047803;28;20128;-85
2022/01/28 11:24:59;;;;;;;27.27;3.60;;;7.60;99.90;;;;;;5037618;28;20045;-86
2022/01/28 11:27:36;;;;;;;27.27;4.22;;;7.70;99.90;;;;;;5048471;28;20038;-84
2022/01/28 11:30:19;;;;;;;21.58;3.40;;;7.80;99.90;;;;;;5068224;28;20091;-86
2022/01/28 11:33:01;;;;;;;23.60;3.50;;;8.00;99.90;;;;;;5051524;28;20518;-85
2022/01/28 11:35:39;;;;;;;19.15;3.42;;;8.20;99.90;;;;;;5052616;28;20048;-85
2022/01/28 11:38:23;;;;;;;21.58;3.78;;;8.40;99.90;;;;;;5048989;28;20041;-85
2022/01/28 11:40:59;;;;;;;25.60;4.03;;;8.50;99.90;;;;;;5035493;28;20402;-85
2022/01/28 11:43:27;;;;;;;;;;;8.40;99.90;;;;;;5047837;28;20076;-84
2022/01/28 11:46:18;;;;;;;26.13;4.20;;;8.30;99.90;;;;;;5067385;28;19925;-85
2022/01/28 11:48:56;;;;;;;31.10;4.20;;;8.20;99.90;;;;;;5027523;28;20483;-86
2022/01/28 11:51:32;;;;;;;26.58;4.40;;;8.20;99.90;;;;;;5034751;28;20072;-88
2022/01/28 11:54:08;;;;;;;21.40;3.70;;;8.00;99.90;;;;;;5046059;28;20053;-86
2022/01/28 11:56:56;;;;;;;24.48;4.68;;;7.80;99.90;;;;;;5051482;28;20098;-86
2022/01/28 11:59:26;;;;;;;27.45;4.82;;;7.70;99.90;;;;;;5038367;28;20087;-87
2022/01/28 12:01:52;;;;;;;26.58;5.68;;;7.70;99.90;;;;;;5027681;28;20111;-86
2022/01/28 12:04:27;;;;;;;25.27;4.53;;;7.70;99.90;;;;;;5064521;28;20053;-88
2022/01/28 12:06:54;;;;;;;20.30;3.50;;;7.80;99.90;;;;;;5033611;28;20571;-86
2022/01/28 12:09:22;;;;;;;27.65;4.13;;;7.70;99.90;;;;;;5039745;28;20116;-86
2022/01/28 12:11:48;;;;;;;29.17;4.05;;;7.70;99.90;;;;;;5037897;28;20076;-87
2022/01/28 12:14:14;;;;;;;23.55;4.38;;;7.70;99.90;;;;;;5031014;28;20122;-87
2022/01/28 12:16:46;;;;;;;17.50;3.65;;;7.70;99.90;;;;;;5034434;28;20053;-86
2022/01/28 12:19:18;;;;;;;29.40;3.67;;;7.60;99.90;;;;;;5053327;28;20047;-86
2022/01/28 12:22:12;;;;;;;16.52;3.95;;;7.60;99.90;;;;;;5068516;28;20056;-86
2022/01/28 12:24:38;;;;;;;17.40;3.47;;;7.60;99.90;;;;;;5037605;28;20053;-87
2022/01/28 12:27:09;;;;;;;23.10;2.75;;;7.70;99.90;;;;;;5047055;28;20051;-88
2022/01/28 12:29:36;;;;;;;20.45;3.40;;;7.70;99.90;;;;;;5050773;28;20156;-86
2022/01/28 12:32:04;;;;;;;18.35;2.70;;;7.80;99.90;;;;;;5050502;28;20036;-86
2022/01/28 12:34:30;;;;;;;21.83;5.00;;;7.70;99.90;;;;;;5050628;28;20052;-85
2022/01/28 12:36:58;;;;;;;28.05;4.00;;;7.60;99.90;;;;;;5049915;28;20076;-87
2022/01/28 12:39:32;;;;;;;24.70;5.50;;;7.50;99.90;;;;;;5049357;28;20133;-87
2022/01/28 12:42:23;;;;;;;23.17;3.95;;;7.40;99.90;;;;;;5020984;28;20040;-87
2022/01/28 12:44:57;;;;;;;21.45;4.95;;;7.30;99.90;;;;;;5057311;28;20487;-87
2022/01/28 12:47:24;;;;;;;23.88;3.92;;;7.40;99.90;;;;;;5065811;28;20152;-88
2022/01/28 12:50:03;;;;;;;18.13;4.18;;;7.40;99.90;;;;;;5031960;28;20044;-86
2022/01/28 12:52:34;;;;;;;15.40;2.50;;;7.50;99.90;;;;;;5045708;28;20041;-87
2022/01/28 12:55:00;;;;;;;15.35;2.55;;;7.70;99.90;;;;;;5048042;28;20051;-86
2022/01/28 12:57:26;;;;;;;22.65;3.33;;;7.80;99.90;;;;;;5033185;28;20044;-86
2022/01/28 12:59:52;;;;;;;23.02;4.40;;;7.90;99.90;;;;;;5050494;28;20114;-87
2022/01/28 13:02:19;;;;;;;17.30;3.15;;;8.00;99.90;;;;;;5050782;28;20080;-87
2022/01/28 13:09:54;;;;;;;;;;;7.90;99.90;;;;;;5040161;28;20371;-86
2022/01/28 13:12:29;;;;;;;19.85;2.95;;;7.70;99.90;;;;;;5045874;28;19924;-86
2022/01/28 13:15:02;;;;;;;16.77;3.53;;;7.70;99.90;;;;;;5039305;28;20147;-87
2022/01/28 13:17:30;;;;;;;16.13;3.40;;;7.80;99.90;;;;;;5044222;28;20083;-88
2022/01/28 13:19:58;;;;;;;20.38;3.67;;;7.80;99.90;;;;;;5050195;28;20045;-87
2022/01/28 13:22:28;;;;;;;17.77;3.15;;;8.00;99.90;;;;;;5033480;28;20128;-86
2022/01/28 13:24:56;;;;;;;17.73;5.05;;;7.90;99.90;;;;;;5043421;28;20129;-84
2022/01/28 13:27:37;;;;;;;19.38;3.20;;;8.00;99.90;;;;;;5036961;28;20049;-83
2022/01/28 13:30:13;;;;;;;18.23;2.88;;;8.00;99.90;;;;;;5037542;28;20049;-87
2022/01/28 13:32:44;;;;;;;24.05;5.65;;;8.00;99.90;;;;;;5036966;28;20037;-85
2022/01/28 13:35:16;;;;;;;14.48;2.28;;;7.90;99.90;;;;;;5043987;28;20053;-84
2022/01/28 13:37:51;;;;;;;19.70;3.20;;;7.70;99.90;;;;;;5060247;28;20432;-86
2022/01/28 13:40:40;;;;;;;23.20;3.55;;;7.60;99.90;;;;;;5057778;28;20174;-85
2022/01/28 13:43:09;;;;;;;28.90;2.85;;;7.60;99.90;;;;;;5029584;28;20127;-83
2022/01/28 13:45:37;;;;;;;19.63;3.00;;;7.70;99.90;;;;;;5029302;28;20042;-83
2022/01/28 13:48:13;;;;;;;18.48;3.47;;;7.70;99.90;;;;;;5030345;28;20056;-83
2022/01/28 13:50:44;;;;;;;19.85;2.95;;;7.80;99.90;;;;;;5038816;28;20075;-83
2022/01/28 13:56:02;;;;;;;18.77;3.15;;;7.70;99.90;;;;;;5050708;28;20053;-83
2022/01/28 13:58:29;;;;;;;24.63;4.07;;;7.80;99.90;;;;;;5050509;28;20083;-83
2022/01/28 14:00:55;;;;;;;24.73;3.70;;;7.90;99.90;;;;;;5017513;28;20375;-83
2022/01/28 14:03:27;;;;;;;28.25;3.67;;;7.90;99.90;;;;;;5033482;28;20045;-82
2022/01/28 14:05:58;;;;;;;13.75;2.88;;;7.80;99.90;;;;;;5050951;28;20103;-83
2022/01/28 14:08:45;;;;;;;18.45;2.90;;;7.70;99.90;;;;;;5034086;28;20087;-83
2022/01/28 14:11:33;;;;;;;19.27;3.03;;;7.60;99.90;;;;;;5034157;28;20057;-83
2022/01/28 14:14:10;;;;;;;16.63;2.70;;;7.50;99.90;;;;;;5049879;28;20126;-83
2022/01/28 14:16:36;;;;;;;17.40;2.95;;;7.30;99.90;;;;;;5049391;28;20056;-83
2022/01/28 14:19:03;;;;;;;20.38;3.00;;;7.30;99.90;;;;;;5067338;28;20049;-83
2022/01/28 14:21:28;;;;;;;19.65;2.63;;;7.20;99.90;;;;;;5033789;28;20053;-83
2022/01/28 14:23:54;;;;;;;13.75;2.72;;;7.30;99.90;;;;;;5050800;28;20037;-82
2022/01/28 14:26:20;;;;;;;19.70;3.17;;;7.20;99.90;;;;;;5033558;28;20372;-86
2022/01/28 14:31:21;;;;;;;16.92;4.10;;;7.30;99.90;;;;;;5050307;28;20391;-87
2022/01/28 14:33:49;;;;;;;17.80;2.58;;;7.20;99.90;;;;;;5035072;28;20041;-83